Time;durP1;ratioP1;P1;durP2;ratioP2;P2;SDS_P1;SDS_P2;PMS_P1;PMS_P2;Temp;Humidity;BMP_temperature;BMP_pressure;BME280_temperature;BME280_humidity;BME280_pressure;Samples;Min_cycle;Max_cycle;Signal;HPM_P1;HPM_P2
2023/05/03 00:00:07;;;;;;;;;3.50;3.50;;;;;;;;119730;1191;25875;-66
2023/05/03 00:02:56;;;;;;;;;6.50;4.00;;;;;;;;119850;1183;25414;-66
2023/05/03 00:05:25;;;;;;;;;5.67;4.00;;;;;;;;119922;1191;25171;-66
2023/05/03 00:07:53;;;;;;;;;5.33;4.00;;;;;;;;119890;1190;24735;-66
2023/05/03 00:10:21;;;;;;;;;3.00;3.00;;;;;;;;119944;1182;25286;-67
2023/05/03 00:12:50;;;;;;;;;5.00;3.33;;;;;;;;119938;1190;25679;-66
2023/05/03 00:15:18;;;;;;;;;2.00;2.00;;;;;;;;120261;1183;24835;-67
2023/05/03 00:17:46;;;;;;;;;3.00;3.00;;;;;;;;119935;1190;25437;-66
2023/05/03 00:20:14;;;;;;;;;3.25;3.25;;;;;;;;119892;1190;24957;-66
2023/05/03 00:22:43;;;;;;;;;6.00;4.00;;;;;;;;119915;1190;24966;-67
2023/05/03 00:25:11;;;;;;;;;4.25;4.25;;;;;;;;119922;1190;25177;-66
2023/05/03 00:27:39;;;;;;;;;5.00;3.50;;;;;;;;119924;1181;25048;-66
2023/05/03 00:30:09;;;;;;;;;5.00;4.00;;;;;;;;119910;1190;25040;-66
2023/05/03 00:32:37;;;;;;;;;5.00;4.00;;;;;;;;119930;1190;25480;-67
2023/05/03 00:35:06;;;;;;;;;5.00;4.00;;;;;;;;119939;1181;25603;-67
2023/05/03 00:37:35;;;;;;;;;3.50;3.50;;;;;;;;119932;1190;24801;-66
2023/05/03 00:40:05;;;;;;;;;4.00;4.00;;;;;;;;119883;1190;25713;-66
2023/05/03 00:42:35;;;;;;;;;5.00;5.00;;;;;;;;119932;1190;25426;-66
2023/05/03 00:45:05;;;;;;;;;3.00;3.00;;;;;;;;119877;1190;25583;-65
2023/05/03 00:47:35;;;;;;;;;5.50;5.25;;;;;;;;119916;1190;25415;-64
2023/05/03 00:50:05;;;;;;;;;6.50;3.00;;;;;;;;119889;1182;24849;-65
2023/05/03 00:52:33;;;;;;;;;5.33;4.00;;;;;;;;119888;1182;25383;-65
2023/05/03 00:55:02;;;;;;;;;3.00;3.00;;;;;;;;119698;1190;24858;-65
2023/05/03 00:57:30;;;;;;;;;2.67;2.67;;;;;;;;119923;1190;25186;-64
2023/05/03 00:59:59;;;;;;;;;6.33;4.67;;;;;;;;119943;1190;25043;-66
2023/05/03 01:02:28;;;;;;;;;5.00;5.00;;;;;;;;119927;1190;25445;-65
2023/05/03 01:04:56;;;;;;;;;4.25;3.75;;;;;;;;119931;1190;24755;-65
2023/05/03 01:07:42;;;;;;;;;4.33;2.00;;;;;;;;119934;1190;25033;-65
2023/05/03 01:10:22;;;;;;;;;4.33;4.00;;;;;;;;119920;1190;25500;-64
2023/05/03 01:13:25;;;;;;;;;4.75;3.00;;;;;;;;119923;1191;24982;-64
2023/05/03 01:16:05;;;;;;;;;4.50;4.50;;;;;;;;119897;1191;25131;-65
2023/05/03 01:18:38;;;;;;;;;3.25;3.25;;;;;;;;119826;1191;25331;-64
2023/05/03 01:21:08;;;;;;;;;5.00;3.50;;;;;;;;119898;1182;25057;-65
2023/05/03 01:23:45;;;;;;;;;4.50;3.25;;;;;;;;119842;1191;24823;-65
2023/05/03 01:26:15;;;;;;;;;5.00;5.00;;;;;;;;119926;1191;25478;-64
2023/05/03 01:28:43;;;;;;;;;4.00;3.50;;;;;;;;119911;1190;25014;-64
2023/05/03 01:31:27;;;;;;;;;6.00;4.00;;;;;;;;119965;1182;24991;-64
2023/05/03 01:34:14;;;;;;;;;4.00;3.00;;;;;;;;119868;1182;25441;-65
2023/05/03 01:36:43;;;;;;;;;3.67;3.67;;;;;;;;119911;1190;25028;-64
2023/05/03 01:39:17;;;;;;;;;4.67;3.67;;;;;;;;119722;1190;25186;-63
2023/05/03 01:41:49;;;;;;;;;4.33;4.00;;;;;;;;119914;1190;25557;-64
2023/05/03 01:44:18;;;;;;;;;5.50;3.50;;;;;;;;119944;1190;25301;-63
2023/05/03 01:46:46;;;;;;;;;3.00;3.00;;;;;;;;119914;1182;25104;-64
2023/05/03 01:49:15;;;;;;;;;4.67;4.67;;;;;;;;119894;1191;25057;-64
2023/05/03 01:51:43;;;;;;;;;5.00;3.67;;;;;;;;119895;1191;25007;-64
2023/05/03 01:54:11;;;;;;;;;5.00;4.25;;;;;;;;119791;1191;25340;-64
2023/05/03 01:56:40;;;;;;;;;3.33;3.33;;;;;;;;119918;1182;25643;-65
2023/05/03 01:59:08;;;;;;;;;4.00;4.00;;;;;;;;119906;1191;25598;-65
2023/05/03 02:01:36;;;;;;;;;4.00;4.00;;;;;;;;119886;1186;25066;-64
2023/05/03 02:04:04;;;;;;;;;5.00;3.67;;;;;;;;119928;1182;25068;-63
2023/05/03 02:06:33;;;;;;;;;3.50;3.00;;;;;;;;119899;1190;24945;-64
2023/05/03 02:09:01;;;;;;;;;4.75;4.75;;;;;;;;119902;1186;25454;-64
2023/05/03 02:11:29;;;;;;;;;4.00;4.00;;;;;;;;119887;1190;24939;-64
2023/05/03 02:13:57;;;;;;;;;4.00;4.00;;;;;;;;119907;1190;25672;-65
2023/05/03 02:16:26;;;;;;;;;4.50;4.00;;;;;;;;119922;1187;25469;-64
2023/05/03 02:18:58;;;;;;;;;4.67;4.67;;;;;;;;119912;1190;25093;-64
2023/05/03 02:21:26;;;;;;;;;5.00;5.00;;;;;;;;119883;1190;25219;-64
2023/05/03 02:23:54;;;;;;;;;5.00;4.00;;;;;;;;119888;1182;25442;-64
2023/05/03 02:26:23;;;;;;;;;4.75;4.00;;;;;;;;119923;1190;24722;-64
2023/05/03 02:28:51;;;;;;;;;4.50;4.00;;;;;;;;119900;1190;25002;-64
2023/05/03 02:31:19;;;;;;;;;3.67;3.67;;;;;;;;119912;1182;25008;-63
2023/05/03 02:33:48;;;;;;;;;3.67;3.00;;;;;;;;119932;1182;25158;-65
2023/05/03 02:36:16;;;;;;;;;5.00;5.00;;;;;;;;119897;1191;24970;-65
2023/05/03 02:38:44;;;;;;;;;4.00;4.00;;;;;;;;119908;1191;25376;-65
2023/05/03 02:41:13;;;;;;;;;3.00;3.00;;;;;;;;119895;1191;25627;-65
2023/05/03 02:43:41;;;;;;;;;5.25;3.00;;;;;;;;119925;1191;25500;-64
2023/05/03 02:46:09;;;;;;;;;5.00;3.50;;;;;;;;119904;1191;25381;-64
2023/05/03 02:48:37;;;;;;;;;4.00;4.00;;;;;;;;119903;1182;25301;-64
2023/05/03 02:51:06;;;;;;;;;4.00;4.00;;;;;;;;119933;1190;25494;-64
2023/05/03 02:53:34;;;;;;;;;7.00;5.00;;;;;;;;119904;1190;24891;-64
2023/05/03 02:56:03;;;;;;;;;7.00;6.33;;;;;;;;119937;1182;25464;-65
2023/05/03 02:58:31;;;;;;;;;5.50;4.00;;;;;;;;119941;1182;25351;-64
2023/05/03 03:00:59;;;;;;;;;1.50;1.25;;;;;;;;119908;1190;25072;-67
2023/05/03 03:03:27;;;;;;;;;5.25;3.75;;;;;;;;119925;1190;25276;-64
2023/05/03 03:05:55;;;;;;;;;1.67;0.33;;;;;;;;119926;1190;25517;-64
2023/05/03 03:08:24;;;;;;;;;5.33;5.00;;;;;;;;119917;1182;25120;-66
2023/05/03 03:10:52;;;;;;;;;5.00;4.00;;;;;;;;119896;1191;24882;-64
2023/05/03 03:13:20;;;;;;;;;5.50;4.75;;;;;;;;119875;1191;25453;-64
2023/05/03 03:15:49;;;;;;;;;4.00;4.00;;;;;;;;119870;1190;25233;-64
2023/05/03 03:18:17;;;;;;;;;5.00;5.00;;;;;;;;119921;1182;25598;-65
2023/05/03 03:20:46;;;;;;;;;2.33;2.33;;;;;;;;119908;1190;24898;-64
2023/05/03 03:23:15;;;;;;;;;5.00;4.00;;;;;;;;119905;1191;25830;-64
2023/05/03 03:25:43;;;;;;;;;4.50;4.50;;;;;;;;119934;1182;25536;-64
2023/05/03 03:28:11;;;;;;;;;5.00;4.00;;;;;;;;119908;1191;24879;-65
2023/05/03 03:30:39;;;;;;;;;5.67;4.00;;;;;;;;119878;1191;25249;-65
2023/05/03 03:33:07;;;;;;;;;5.75;3.50;;;;;;;;119885;1182;25082;-65
2023/05/03 03:35:36;;;;;;;;;8.00;5.00;;;;;;;;119925;1182;25373;-65
2023/05/03 03:38:05;;;;;;;;;4.50;4.50;;;;;;;;119744;1184;25457;-65
2023/05/03 03:40:33;;;;;;;;;4.75;4.50;;;;;;;;119900;1190;24840;-65
2023/05/03 03:43:02;;;;;;;;;7.00;5.00;;;;;;;;119914;1182;24930;-65
2023/05/03 03:45:30;;;;;;;;;4.67;4.67;;;;;;;;119909;1190;25125;-65
2023/05/03 03:47:59;;;;;;;;;5.33;5.00;;;;;;;;119928;1190;25711;-64
2023/05/03 03:50:27;;;;;;;;;6.00;4.00;;;;;;;;119919;1190;25764;-65
2023/05/03 03:52:55;;;;;;;;;5.25;4.75;;;;;;;;119920;1189;25405;-65
2023/05/03 03:55:24;;;;;;;;;5.25;5.25;;;;;;;;119951;1182;25582;-66
2023/05/03 03:57:52;;;;;;;;;7.00;5.50;;;;;;;;119910;1181;25213;-65
2023/05/03 04:00:20;;;;;;;;;9.75;8.00;;;;;;;;119895;1190;25039;-65
2023/05/03 04:02:48;;;;;;;;;7.00;7.00;;;;;;;;119907;1190;24939;-65
2023/05/03 04:05:17;;;;;;;;;6.75;6.00;;;;;;;;119951;1182;24667;-65
2023/05/03 04:07:45;;;;;;;;;6.33;5.67;;;;;;;;119915;1181;26178;-65
2023/05/03 04:10:14;;;;;;;;;6.25;6.25;;;;;;;;119930;1177;25115;-64
2023/05/03 04:12:42;;;;;;;;;7.33;6.33;;;;;;;;119913;1191;25709;-65
2023/05/03 04:15:11;;;;;;;;;6.00;5.67;;;;;;;;119882;1191;25536;-66
2023/05/03 04:17:39;;;;;;;;;7.00;6.00;;;;;;;;119918;1182;24903;-64
2023/05/03 04:20:10;;;;;;;;;6.00;5.00;;;;;;;;120092;1189;25580;-64
2023/05/03 04:22:39;;;;;;;;;14.33;11.00;;;;;;;;119904;1191;25011;-64
2023/05/03 04:25:12;;;;;;;;;6.00;5.00;;;;;;;;119915;1190;25520;-66
2023/05/03 04:27:41;;;;;;;;;13.25;9.25;;;;;;;;119802;1183;25740;-63
2023/05/03 04:30:10;;;;;;;;;12.00;10.50;;;;;;;;119898;1190;25274;-68
2023/05/03 04:32:39;;;;;;;;;13.50;9.75;;;;;;;;119907;1190;24905;-65
2023/05/03 04:35:09;;;;;;;;;11.25;9.25;;;;;;;;119907;1187;25242;-63
2023/05/03 04:37:39;;;;;;;;;13.67;10.33;;;;;;;;119863;1190;24926;-64
2023/05/03 04:40:09;;;;;;;;;13.75;8.50;;;;;;;;119914;1190;25152;-61
2023/05/03 04:42:38;;;;;;;;;11.25;9.00;;;;;;;;119915;1190;25026;-62
2023/05/03 04:45:08;;;;;;;;;9.00;9.00;;;;;;;;119924;1182;25021;-62
2023/05/03 04:47:36;;;;;;;;;11.00;9.00;;;;;;;;119931;1190;24787;-67
2023/05/03 04:50:07;;;;;;;;;20.00;11.67;;;;;;;;119940;1190;25676;-63
2023/05/03 04:52:35;;;;;;;;;12.00;11.33;;;;;;;;119889;1186;25480;-62
2023/05/03 04:55:05;;;;;;;;;13.25;11.00;;;;;;;;119977;1186;24890;-62
2023/05/03 04:57:33;;;;;;;;;16.00;11.33;;;;;;;;119877;1190;25666;-64
2023/05/03 05:00:03;;;;;;;;;17.00;12.00;;;;;;;;119871;1182;25433;-62
2023/05/03 05:02:31;;;;;;;;;15.25;9.50;;;;;;;;119888;1190;25285;-62
2023/05/03 05:04:59;;;;;;;;;3.25;2.00;;;;;;;;119823;1191;25282;-62
2023/05/03 05:07:28;;;;;;;;;9.00;7.00;;;;;;;;119914;1191;24727;-61
2023/05/03 05:09:56;;;;;;;;;10.50;8.00;;;;;;;;119723;1191;25422;-64
2023/05/03 05:12:25;;;;;;;;;12.25;8.50;;;;;;;;119915;1191;25670;-69
2023/05/03 05:14:53;;;;;;;;;8.00;7.50;;;;;;;;119937;1183;24729;-66
2023/05/03 05:17:22;;;;;;;;;11.00;10.00;;;;;;;;119906;1182;25356;-67
2023/05/03 05:19:50;;;;;;;;;12.00;10.00;;;;;;;;119882;1186;25120;-68
2023/05/03 05:22:19;;;;;;;;;9.00;7.67;;;;;;;;119914;1181;25098;-67
2023/05/03 05:24:48;;;;;;;;;7.67;7.33;;;;;;;;119890;1190;25120;-68
2023/05/03 05:27:16;;;;;;;;;8.00;8.00;;;;;;;;119893;1190;25086;-66
2023/05/03 05:29:44;;;;;;;;;13.00;6.25;;;;;;;;119871;1190;25275;-69
2023/05/03 05:32:12;;;;;;;;;11.50;9.25;;;;;;;;119872;1190;25441;-72
2023/05/03 05:34:41;;;;;;;;;16.00;13.00;;;;;;;;119912;1181;25586;-66
2023/05/03 05:37:12;;;;;;;;;14.25;14.25;;;;;;;;119945;1177;25279;-68
2023/05/03 05:39:40;;;;;;;;;11.50;11.50;;;;;;;;119954;1179;25303;-67
2023/05/03 05:42:09;;;;;;;;;13.25;8.25;;;;;;;;119963;1186;25646;-67
2023/05/03 05:44:37;;;;;;;;;10.25;9.00;;;;;;;;119914;1190;24848;-67
2023/05/03 05:47:05;;;;;;;;;10.00;9.25;;;;;;;;119898;1190;24887;-66
2023/05/03 05:49:35;;;;;;;;;14.00;13.00;;;;;;;;119989;1186;24814;-69
2023/05/03 05:52:04;;;;;;;;;10.75;9.75;;;;;;;;119916;1186;25616;-69
2023/05/03 05:54:32;;;;;;;;;7.00;7.00;;;;;;;;119918;1190;24876;-70
2023/05/03 05:57:01;;;;;;;;;13.00;10.00;;;;;;;;119923;1190;25712;-72
2023/05/03 05:59:30;;;;;;;;;9.33;8.67;;;;;;;;119934;1190;24885;-71
2023/05/03 06:01:59;;;;;;;;;10.00;10.00;;;;;;;;119899;1190;25164;-71
2023/05/03 06:04:27;;;;;;;;;7.00;7.00;;;;;;;;119932;1183;25328;-70
2023/05/03 06:06:56;;;;;;;;;5.25;4.00;;;;;;;;119895;1190;25543;-70
2023/05/03 06:09:24;;;;;;;;;11.33;9.67;;;;;;;;119902;1190;24767;-73
2023/05/03 06:11:52;;;;;;;;;10.50;8.00;;;;;;;;119879;1190;25650;-68
2023/05/03 06:14:21;;;;;;;;;11.50;6.50;;;;;;;;119898;1190;25455;-68
2023/05/03 06:16:49;;;;;;;;;12.67;8.33;;;;;;;;119909;1182;25003;-69
2023/05/03 06:19:18;;;;;;;;;13.00;9.67;;;;;;;;119938;1190;24982;-69
2023/05/03 06:21:46;;;;;;;;;10.25;7.75;;;;;;;;119911;1190;24993;-67
2023/05/03 06:24:19;;;;;;;;;12.25;10.75;;;;;;;;119921;1186;25131;-64
2023/05/03 06:26:48;;;;;;;;;16.33;10.33;;;;;;;;119896;1186;25545;-64
2023/05/03 06:29:17;;;;;;;;;13.75;9.50;;;;;;;;119916;1186;25488;-64
2023/05/03 06:31:45;;;;;;;;;14.33;10.67;;;;;;;;119899;1190;25606;-64
2023/05/03 06:34:18;;;;;;;;;9.00;9.00;;;;;;;;119943;1181;25107;-64
2023/05/03 06:36:48;;;;;;;;;10.67;8.33;;;;;;;;119962;1186;25667;-63
2023/05/03 06:39:16;;;;;;;;;14.00;10.00;;;;;;;;119913;1181;24784;-71
2023/05/03 06:41:45;;;;;;;;;9.00;7.00;;;;;;;;119911;1182;24677;-73
2023/05/03 06:44:13;;;;;;;;;13.00;10.00;;;;;;;;119883;1190;25166;-75
2023/05/03 06:46:41;;;;;;;;;9.50;8.00;;;;;;;;119927;1183;25013;-73
2023/05/03 06:49:09;;;;;;;;;10.25;10.00;;;;;;;;119888;1190;24723;-72
2023/05/03 06:51:38;;;;;;;;;8.25;8.25;;;;;;;;119916;1186;24869;-71
2023/05/03 06:54:08;;;;;;;;;12.67;9.00;;;;;;;;119928;1182;25469;-72
2023/05/03 06:56:36;;;;;;;;;8.00;8.00;;;;;;;;120033;1186;24722;-73
2023/05/03 06:59:04;;;;;;;;;10.50;9.50;;;;;;;;119916;1182;24677;-73
2023/05/03 07:01:33;;;;;;;;;12.33;9.00;;;;;;;;119897;1190;24708;-72
2023/05/03 07:04:02;;;;;;;;;12.50;10.00;;;;;;;;119865;1188;25384;-70
2023/05/03 07:06:30;;;;;;;;;10.50;7.25;;;;;;;;119880;1183;24799;-72
2023/05/03 07:09:11;;;;;;;;;12.75;9.75;;;;;;;;119935;1182;25670;-72
2023/05/03 07:11:46;;;;;;;;;7.75;7.75;;;;;;;;120001;1177;27000;-73
2023/05/03 07:14:15;;;;;;;;;13.50;10.00;;;;;;;;119934;1177;25187;-80
2023/05/03 07:16:43;;;;;;;;;14.75;10.00;;;;;;;;119747;1189;25076;-64
2023/05/03 07:19:11;;;;;;;;;11.00;7.50;;;;;;;;119929;1190;24972;-64
2023/05/03 07:21:39;;;;;;;;;9.00;8.50;;;;;;;;119913;1183;25658;-64
2023/05/03 07:24:11;;;;;;;;;14.00;8.00;;;;;;;;119936;1186;25009;-63
2023/05/03 07:26:39;;;;;;;;;12.00;9.33;;;;;;;;119879;1191;24830;-65
2023/05/03 07:29:11;;;;;;;;;10.00;8.33;;;;;;;;119907;1190;25660;-66
2023/05/03 07:31:39;;;;;;;;;9.33;8.33;;;;;;;;119912;1190;25081;-80
2023/05/03 07:34:07;;;;;;;;;11.00;11.00;;;;;;;;119920;1181;25570;-65
2023/05/03 07:36:36;;;;;;;;;9.00;7.00;;;;;;;;119896;1190;25006;-79
2023/05/03 07:39:05;;;;;;;;;13.00;9.75;;;;;;;;119911;1186;25352;-63
2023/05/03 07:41:33;;;;;;;;;11.00;9.67;;;;;;;;119942;1190;25185;-63
2023/05/03 07:44:01;;;;;;;;;14.00;10.25;;;;;;;;119888;1182;24921;-63
2023/05/03 07:46:33;;;;;;;;;12.00;9.50;;;;;;;;119922;1190;25462;-64
2023/05/03 07:49:04;;;;;;;;;11.00;9.00;;;;;;;;119928;1182;25709;-63
2023/05/03 07:51:36;;;;;;;;;9.75;7.00;;;;;;;;119867;1190;25069;-63
2023/05/03 07:54:04;;;;;;;;;12.75;8.00;;;;;;;;119740;1190;24919;-63
2023/05/03 07:56:33;;;;;;;;;8.75;8.50;;;;;;;;119917;1178;25276;-62
2023/05/03 07:59:01;;;;;;;;;11.50;8.00;;;;;;;;119871;1190;25152;-63
2023/05/03 08:01:37;;;;;;;;;6.50;6.00;;;;;;;;119958;1186;25334;-63
2023/05/03 08:04:05;;;;;;;;;10.00;9.25;;;;;;;;119910;1182;24863;-63
2023/05/03 08:06:34;;;;;;;;;8.50;7.00;;;;;;;;119922;1190;24663;-63
2023/05/03 08:09:06;;;;;;;;;12.75;10.00;;;;;;;;119900;1190;25042;-63
2023/05/03 08:11:34;;;;;;;;;11.00;10.00;;;;;;;;119928;1190;25253;-63
2023/05/03 08:14:02;;;;;;;;;11.75;8.75;;;;;;;;119900;1182;25072;-64
2023/05/03 08:16:30;;;;;;;;;7.50;7.50;;;;;;;;119896;1190;24863;-63
2023/05/03 08:18:59;;;;;;;;;9.00;8.25;;;;;;;;119762;1186;25088;-63
2023/05/03 08:21:27;;;;;;;;;8.33;7.33;;;;;;;;119921;1190;25573;-63
2023/05/03 08:23:55;;;;;;;;;10.50;7.25;;;;;;;;119924;1182;25283;-64
2023/05/03 08:26:24;;;;;;;;;10.00;8.00;;;;;;;;119936;1190;24847;-62
2023/05/03 08:28:53;;;;;;;;;8.75;8.00;;;;;;;;119889;1190;25272;-64
2023/05/03 08:31:21;;;;;;;;;7.25;7.25;;;;;;;;119887;1187;25017;-63
2023/05/03 08:33:50;;;;;;;;;8.67;8.00;;;;;;;;119912;1190;26450;-63
2023/05/03 08:36:18;;;;;;;;;10.25;8.75;;;;;;;;119918;1190;24902;-63
2023/05/03 08:38:47;;;;;;;;;8.67;8.00;;;;;;;;119925;1190;24934;-63
2023/05/03 08:41:24;;;;;;;;;13.00;10.50;;;;;;;;119905;1190;24741;-62
2023/05/03 08:43:54;;;;;;;;;9.33;8.67;;;;;;;;119890;1190;24995;-63
2023/05/03 08:46:24;;;;;;;;;9.00;9.00;;;;;;;;119874;1190;25475;-63
2023/05/03 08:48:53;;;;;;;;;9.00;8.67;;;;;;;;119928;1186;25560;-63
2023/05/03 08:51:23;;;;;;;;;10.33;8.33;;;;;;;;119889;1190;25662;-62
2023/05/03 08:53:52;;;;;;;;;9.00;9.00;;;;;;;;119883;1190;24849;-65
2023/05/03 08:56:31;;;;;;;;;7.67;7.67;;;;;;;;119922;1190;25519;-65
2023/05/03 08:59:06;;;;;;;;;7.00;6.00;;;;;;;;119907;1190;24731;-67
2023/05/03 09:01:36;;;;;;;;;9.67;9.67;;;;;;;;119942;1182;25943;-66
2023/05/03 09:04:05;;;;;;;;;10.75;10.00;;;;;;;;119910;1187;25544;-67
2023/05/03 09:06:35;;;;;;;;;10.25;7.50;;;;;;;;119925;1190;25108;-66
2023/05/03 09:09:08;;;;;;;;;9.00;9.00;;;;;;;;119903;1191;25234;-65
2023/05/03 09:11:37;;;;;;;;;8.75;7.50;;;;;;;;119900;1182;25299;-65
2023/05/03 09:14:14;;;;;;;;;10.00;9.75;;;;;;;;119692;1190;24792;-65
2023/05/03 09:16:44;;;;;;;;;9.75;9.25;;;;;;;;120156;1177;25576;-64
2023/05/03 09:19:14;;;;;;;;;9.00;5.33;;;;;;;;119892;1182;25674;-66
2023/05/03 09:21:45;;;;;;;;;11.00;9.33;;;;;;;;119745;1184;28000;-65
2023/05/03 09:24:16;;;;;;;;;9.00;8.67;;;;;;;;119889;1190;24757;-66
2023/05/03 09:26:46;;;;;;;;;11.00;7.00;;;;;;;;119886;1182;26097;-69
2023/05/03 09:29:29;;;;;;;;;10.75;9.50;;;;;;;;119900;1190;25295;-68
2023/05/03 09:31:59;;;;;;;;;8.25;8.25;;;;;;;;119949;1186;25125;-67
2023/05/03 09:34:28;;;;;;;;;6.33;6.00;;;;;;;;120040;1182;25779;-68
2023/05/03 09:36:56;;;;;;;;;8.50;7.75;;;;;;;;119732;1190;25157;-68
2023/05/03 09:39:25;;;;;;;;;9.00;7.00;;;;;;;;119894;1187;25559;-69
2023/05/03 09:41:53;;;;;;;;;8.00;8.00;;;;;;;;119880;1187;24999;-69
2023/05/03 09:44:47;;;;;;;;;9.67;7.33;;;;;;;;119886;1184;25128;-69
2023/05/03 09:47:17;;;;;;;;;8.25;7.25;;;;;;;;119992;1186;24917;-68
2023/05/03 09:49:45;;;;;;;;;9.50;8.00;;;;;;;;119937;1177;26155;-69
2023/05/03 09:52:14;;;;;;;;;8.00;8.00;;;;;;;;119866;1190;25460;-69
2023/05/03 09:54:42;;;;;;;;;11.33;8.00;;;;;;;;119973;1186;25330;-68
2023/05/03 09:57:13;;;;;;;;;6.50;5.75;;;;;;;;119700;1190;25590;-69
2023/05/03 09:59:44;;;;;;;;;9.00;5.25;;;;;;;;119895;1190;25405;-69
2023/05/03 10:02:13;;;;;;;;;6.50;6.50;;;;;;;;119930;1186;24859;-74
2023/05/03 10:04:48;;;;;;;;;7.67;7.33;;;;;;;;119923;1182;24702;-72
2023/05/03 10:07:17;;;;;;;;;8.67;6.67;;;;;;;;119774;1188;25696;-70
2023/05/03 10:09:46;;;;;;;;;7.25;7.25;;;;;;;;120007;1182;25427;-70
2023/05/03 10:12:17;;;;;;;;;8.25;8.25;;;;;;;;119908;1191;25500;-70
2023/05/03 10:14:47;;;;;;;;;8.25;7.75;;;;;;;;119861;1190;25289;-70
2023/05/03 10:17:26;;;;;;;;;8.00;7.00;;;;;;;;119899;1182;25201;-70
2023/05/03 10:20:21;;;;;;;;;8.67;6.00;;;;;;;;119883;1190;25579;-69
2023/05/03 10:23:05;;;;;;;;;6.50;6.00;;;;;;;;119881;1190;25620;-69
2023/05/03 10:25:35;;;;;;;;;8.00;8.00;;;;;;;;119924;1190;25599;-70
2023/05/03 10:28:08;;;;;;;;;7.33;6.00;;;;;;;;119905;1190;24774;-69
2023/05/03 10:30:38;;;;;;;;;5.00;5.00;;;;;;;;119914;1190;24987;-69
2023/05/03 10:33:12;;;;;;;;;8.00;6.00;;;;;;;;119904;1190;25057;-70
2023/05/03 10:35:42;;;;;;;;;8.33;6.00;;;;;;;;120172;1177;28629;-70
2023/05/03 10:38:14;;;;;;;;;7.50;6.75;;;;;;;;119898;1190;25475;-70
2023/05/03 10:40:43;;;;;;;;;6.25;5.75;;;;;;;;119878;1190;25370;-68
2023/05/03 10:43:29;;;;;;;;;9.33;6.00;;;;;;;;119916;1190;25240;-69
2023/05/03 10:46:05;;;;;;;;;9.67;8.00;;;;;;;;119934;1182;24702;-71
2023/05/03 10:48:34;;;;;;;;;7.33;5.00;;;;;;;;119931;1182;25483;-69
2023/05/03 10:51:35;;;;;;;;;6.50;6.00;;;;;;;;119907;1190;24822;-69
2023/05/03 10:54:04;;;;;;;;;4.67;4.00;;;;;;;;119922;1190;25233;-69
2023/05/03 10:56:32;;;;;;;;;6.25;6.25;;;;;;;;119919;1190;24735;-70
2023/05/03 10:59:01;;;;;;;;;7.50;5.50;;;;;;;;119905;1186;25396;-70
2023/05/03 11:01:30;;;;;;;;;7.00;3.67;;;;;;;;119926;1190;25177;-69
2023/05/03 11:04:20;;;;;;;;;6.67;6.00;;;;;;;;119922;1183;25549;-69
2023/05/03 11:06:50;;;;;;;;;6.00;4.00;;;;;;;;119915;1190;24998;-69
2023/05/03 11:09:19;;;;;;;;;5.25;5.25;;;;;;;;119929;1190;24878;-69
2023/05/03 11:11:47;;;;;;;;;4.00;4.00;;;;;;;;119931;1186;25667;-69
2023/05/03 11:14:15;;;;;;;;;6.25;4.25;;;;;;;;119925;1190;25530;-69
2023/05/03 11:16:49;;;;;;;;;8.50;6.50;;;;;;;;119931;1181;24872;-69
2023/05/03 11:19:18;;;;;;;;;6.50;5.00;;;;;;;;119927;1182;25656;-69
2023/05/03 11:21:46;;;;;;;;;4.00;4.00;;;;;;;;119906;1182;25416;-69
2023/05/03 11:24:15;;;;;;;;;6.00;5.00;;;;;;;;119907;1191;25613;-70
2023/05/03 11:26:44;;;;;;;;;7.33;5.67;;;;;;;;119929;1190;25530;-69
2023/05/03 11:29:13;;;;;;;;;6.00;6.00;;;;;;;;119886;1190;25234;-69
2023/05/03 11:31:42;;;;;;;;;6.33;5.67;;;;;;;;120067;1186;24788;-68
2023/05/03 11:34:11;;;;;;;;;7.00;5.25;;;;;;;;119899;1190;25412;-69
2023/05/03 11:36:41;;;;;;;;;5.00;4.00;;;;;;;;119949;1182;24700;-68
2023/05/03 11:39:13;;;;;;;;;6.75;5.25;;;;;;;;119902;1190;25629;-71
2023/05/03 11:41:41;;;;;;;;;5.67;5.00;;;;;;;;119891;1190;25476;-69
2023/05/03 11:44:10;;;;;;;;;5.00;4.50;;;;;;;;119937;1187;25257;-68
2023/05/03 11:46:45;;;;;;;;;5.00;5.00;;;;;;;;119879;1190;24971;-68
2023/05/03 11:49:17;;;;;;;;;9.50;5.50;;;;;;;;119925;1186;24775;-68
2023/05/03 11:51:47;;;;;;;;;8.67;6.00;;;;;;;;119937;1182;25595;-69
2023/05/03 11:54:22;;;;;;;;;6.33;5.67;;;;;;;;119922;1190;25191;-69
2023/05/03 11:56:57;;;;;;;;;4.67;4.67;;;;;;;;119748;1183;25509;-69
2023/05/03 11:59:34;;;;;;;;;7.50;6.00;;;;;;;;119905;1190;25742;-70
2023/05/03 12:02:04;;;;;;;;;6.00;5.50;;;;;;;;119892;1182;25211;-66
2023/05/03 12:04:33;;;;;;;;;5.50;5.50;;;;;;;;119904;1182;25560;-66
2023/05/03 12:07:02;;;;;;;;;2.67;2.67;;;;;;;;119911;1181;24688;-66
2023/05/03 12:09:33;;;;;;;;;4.00;4.00;;;;;;;;119897;1190;24805;-67
2023/05/03 12:12:03;;;;;;;;;9.00;6.00;;;;;;;;119733;1190;25420;-65
2023/05/03 12:14:58;;;;;;;;;5.67;5.67;;;;;;;;119919;1190;25180;-66
2023/05/03 12:17:37;;;;;;;;;5.25;5.25;;;;;;;;119923;1182;25146;-64
2023/05/03 12:20:18;;;;;;;;;7.00;5.25;;;;;;;;119737;1181;24917;-64
2023/05/03 12:22:54;;;;;;;;;4.50;3.75;;;;;;;;119881;1189;24688;-61
2023/05/03 12:25:26;;;;;;;;;6.00;5.00;;;;;;;;119905;1190;25166;-61
2023/05/03 12:28:03;;;;;;;;;8.50;6.00;;;;;;;;119861;1190;25598;-60
2023/05/03 12:30:34;;;;;;;;;7.67;6.00;;;;;;;;119876;1182;25326;-61
2023/05/03 12:33:02;;;;;;;;;4.75;3.75;;;;;;;;119988;1186;25572;-61
2023/05/03 12:35:32;;;;;;;;;6.75;6.00;;;;;;;;119913;1186;25455;-61
2023/05/03 12:38:03;;;;;;;;;6.25;4.25;;;;;;;;119895;1187;25526;-60
2023/05/03 12:40:31;;;;;;;;;4.75;4.75;;;;;;;;119985;1186;25470;-62
2023/05/03 12:43:02;;;;;;;;;6.00;6.00;;;;;;;;119871;1182;25558;-61
2023/05/03 12:45:30;;;;;;;;;7.00;6.50;;;;;;;;119932;1190;25230;-62
2023/05/03 12:48:02;;;;;;;;;6.67;5.67;;;;;;;;119912;1190;25583;-62
2023/05/03 12:50:31;;;;;;;;;6.00;4.67;;;;;;;;119906;1190;25327;-61
2023/05/03 12:53:03;;;;;;;;;5.00;5.00;;;;;;;;119908;1190;25386;-62
2023/05/03 12:55:38;;;;;;;;;7.00;5.67;;;;;;;;119917;1186;24889;-62
2023/05/03 12:58:11;;;;;;;;;7.33;6.33;;;;;;;;119913;1190;25300;-62
2023/05/03 13:00:59;;;;;;;;;8.00;7.00;;;;;;;;119898;1190;24989;-62
2023/05/03 13:03:30;;;;;;;;;6.00;5.00;;;;;;;;119898;1190;25337;-63
2023/05/03 13:06:07;;;;;;;;;9.00;6.50;;;;;;;;119924;1190;25258;-63
2023/05/03 13:08:41;;;;;;;;;6.33;5.33;;;;;;;;119911;1190;25212;-61
2023/05/03 13:11:12;;;;;;;;;4.00;4.00;;;;;;;;119945;1181;25301;-61
2023/05/03 13:13:41;;;;;;;;;8.00;5.33;;;;;;;;119887;1183;25462;-62
2023/05/03 13:16:10;;;;;;;;;6.67;5.00;;;;;;;;119916;1190;24686;-62
2023/05/03 13:18:38;;;;;;;;;6.25;6.25;;;;;;;;119897;1187;25054;-62
2023/05/03 13:21:07;;;;;;;;;6.50;5.50;;;;;;;;119911;1190;25044;-61
2023/05/03 13:23:35;;;;;;;;;7.25;6.50;;;;;;;;119923;1182;25683;-61
2023/05/03 13:26:04;;;;;;;;;8.00;6.00;;;;;;;;120046;1186;25693;-62
2023/05/03 13:28:32;;;;;;;;;6.67;6.67;;;;;;;;119923;1178;25421;-62
2023/05/03 13:31:00;;;;;;;;;7.33;7.00;;;;;;;;119928;1186;24977;-62
2023/05/03 13:33:28;;;;;;;;;5.00;5.00;;;;;;;;119903;1190;25384;-62
2023/05/03 13:35:57;;;;;;;;;4.33;4.33;;;;;;;;119933;1190;25655;-62
2023/05/03 13:38:25;;;;;;;;;7.00;7.00;;;;;;;;119907;1190;25373;-62
2023/05/03 13:40:54;;;;;;;;;6.00;5.67;;;;;;;;119917;1190;25417;-62
2023/05/03 13:43:22;;;;;;;;;9.33;8.00;;;;;;;;119929;1190;24807;-62
2023/05/03 13:45:51;;;;;;;;;7.00;7.00;;;;;;;;119935;1182;24860;-62
2023/05/03 13:48:20;;;;;;;;;7.25;6.00;;;;;;;;119925;1190;25238;-61
2023/05/03 13:50:48;;;;;;;;;7.00;6.50;;;;;;;;119927;1190;25643;-63
2023/05/03 13:53:17;;;;;;;;;9.00;6.00;;;;;;;;119908;1190;25581;-62
2023/05/03 13:55:45;;;;;;;;;9.00;6.50;;;;;;;;119953;1181;25186;-63
2023/05/03 13:58:13;;;;;;;;;6.50;5.50;;;;;;;;119903;1190;25090;-63
2023/05/03 14:00:41;;;;;;;;;8.25;6.25;;;;;;;;119877;1190;25183;-62
2023/05/03 14:03:10;;;;;;;;;6.00;6.00;;;;;;;;119894;1190;25082;-61
2023/05/03 14:05:39;;;;;;;;;11.00;9.75;;;;;;;;119918;1182;25277;-61
2023/05/03 14:08:07;;;;;;;;;8.00;6.00;;;;;;;;119919;1182;25472;-63
2023/05/03 14:10:36;;;;;;;;;6.00;6.00;;;;;;;;119931;1177;26582;-62
2023/05/03 14:13:04;;;;;;;;;5.75;5.75;;;;;;;;119900;1190;24800;-62
2023/05/03 14:15:38;;;;;;;;;5.00;5.00;;;;;;;;119896;1186;25043;-63
2023/05/03 14:18:07;;;;;;;;;6.00;6.00;;;;;;;;119929;1182;25079;-63
2023/05/03 14:20:36;;;;;;;;;5.67;5.67;;;;;;;;119878;1187;25331;-62
2023/05/03 14:23:04;;;;;;;;;7.25;7.25;;;;;;;;119955;1186;25244;-63
2023/05/03 14:25:33;;;;;;;;;6.50;6.50;;;;;;;;119937;1177;25292;-62
2023/05/03 14:28:02;;;;;;;;;10.00;7.33;;;;;;;;119943;1186;26183;-62
2023/05/03 14:30:30;;;;;;;;;6.67;6.67;;;;;;;;119874;1190;25487;-62
2023/05/03 14:32:59;;;;;;;;;7.00;7.00;;;;;;;;119968;1186;25255;-62
2023/05/03 14:35:27;;;;;;;;;6.75;6.75;;;;;;;;119943;1181;24882;-62
2023/05/03 14:37:55;;;;;;;;;6.00;5.25;;;;;;;;120030;1186;25206;-62
2023/05/03 14:40:24;;;;;;;;;8.00;6.25;;;;;;;;120016;1186;25614;-62
2023/05/03 14:42:52;;;;;;;;;8.75;8.00;;;;;;;;119919;1181;25591;-63